Time;durP1;ratioP1;P1;durP2;ratioP2;P2;SDS_P1;SDS_P2;PMS_P1;PMS_P2;Temp;Humidity;BMP_temperature;BMP_pressure;BME280_temperature;BME280_humidity;BME280_pressure;Samples;Min_cycle;Max_cycle;Signal;HPM_P1;HPM_P2
2022/08/01 00:02:09;;;;;;;0.00;0.00;;;;;;;14.48;100.00;97832.88;6126005;23;20022;-58
2022/08/01 00:04:36;;;;;;;0.00;0.00;;;;;;;14.50;100.00;97827.41;6125490;23;20052;-59
2022/08/01 00:07:04;;;;;;;0.00;0.00;;;;;;;14.49;100.00;97831.03;6124814;23;20128;-59
2022/08/01 00:09:32;;;;;;;0.00;0.00;;;;;;;14.48;100.00;97826.72;6125253;23;20084;-59
2022/08/01 00:12:01;;;;;;;0.00;0.00;;;;;;;14.47;100.00;97825.88;6124337;23;20014;-58
2022/08/01 00:14:29;;;;;;;0.00;0.00;;;;;;;14.45;100.00;97824.31;6124747;23;20033;-59
2022/08/01 00:16:57;;;;;;;0.00;0.00;;;;;;;14.47;100.00;97822.41;6124700;23;20340;-59
2022/08/01 00:19:24;;;;;;;0.00;0.00;;;;;;;14.49;100.00;97823.94;6124713;23;20089;-59
2022/08/01 00:21:52;;;;;;;0.00;0.00;;;;;;;14.47;100.00;97825.06;6125521;23;20049;-59
2022/08/01 00:24:19;;;;;;;0.00;0.00;;;;;;;14.48;100.00;97824.06;6125019;23;20028;-58
2022/08/01 00:26:46;;;;;;;0.00;0.00;;;;;;;14.49;100.00;97826.59;6125639;23;20022;-59
2022/08/01 00:29:15;;;;;;;0.00;0.00;;;;;;;14.48;100.00;97818.78;6124932;23;20470;-58
2022/08/01 00:31:43;;;;;;;0.00;0.00;;;;;;;14.49;100.00;97826.59;6124436;23;20018;-59
2022/08/01 00:34:10;;;;;;;0.00;0.00;;;;;;;14.47;100.00;97831.16;6124356;23;20045;-58
2022/08/01 00:36:38;;;;;;;0.00;0.00;;;;;;;14.47;100.00;97819.75;6123833;23;20029;-59
2022/08/01 00:39:05;;;;;;;0.00;0.00;;;;;;;14.38;100.00;97829.28;6124384;23;20456;-59
2022/08/01 00:41:33;;;;;;;0.00;0.00;;;;;;;14.34;100.00;97822.56;6124113;23;20025;-59
2022/08/01 00:44:04;;;;;;;0.00;0.00;;;;;;;14.34;100.00;97824.38;6124187;23;20077;-59
2022/08/01 00:46:33;;;;;;;0.00;0.00;;;;;;;14.31;100.00;97825.47;6124279;23;20093;-59
2022/08/01 00:49:01;;;;;;;0.00;0.00;;;;;;;14.32;100.00;97826.31;6124276;23;20022;-59
2022/08/01 00:51:28;;;;;;;0.00;0.00;;;;;;;14.30;100.00;97828.25;6124082;23;20018;-59
2022/08/01 00:53:56;;;;;;;0.00;0.00;;;;;;;14.30;100.00;97823.81;6124262;23;20022;-59
2022/08/01 00:56:25;;;;;;;0.00;0.00;;;;;;;14.35;100.00;97828.69;6124335;23;20131;-59
2022/08/01 00:58:53;;;;;;;0.00;0.00;;;;;;;14.33;100.00;97838.59;6124495;23;20065;-59
2022/08/01 01:01:21;;;;;;;0.00;0.00;;;;;;;14.29;100.00;97839.81;6124663;23;20363;-59
2022/08/01 01:03:50;;;;;;;0.00;0.00;;;;;;;14.26;100.00;97832.97;6124264;23;20029;-59
2022/08/01 01:06:36;;;;;;;0.00;0.00;;;;;;;14.28;100.00;97835.44;6123653;23;20056;-59
2022/08/01 01:09:18;;;;;;;0.00;0.00;;;;;;;14.26;100.00;97827.66;6125058;23;20227;-59
2022/08/01 01:11:58;;;;;;;0.00;0.00;;;;;;;14.27;100.00;97834.63;6124159;23;20017;-59
2022/08/01 01:14:34;;;;;;;0.00;0.00;;;;;;;14.20;100.00;97830.81;6124091;23;20105;-59
2022/08/01 01:17:07;;;;;;;0.00;0.00;;;;;;;14.21;100.00;97835.13;6123996;23;20463;-59
2022/08/01 01:19:44;;;;;;;0.00;0.00;;;;;;;14.29;100.00;97842.44;6124372;23;20121;-59
2022/08/01 01:22:37;;;;;;;0.00;0.00;;;;;;;14.28;100.00;97833.66;6123718;23;20014;-59
2022/08/01 01:25:40;;;;;;;0.00;0.00;;;;;;;14.29;100.00;97832.69;6124402;23;20022;-59
2022/08/01 01:28:11;;;;;;;;;;;;;;;14.29;100.00;97832.69;6124544;23;20444;-59
2022/08/01 01:30:44;;;;;;;0.00;0.00;;;;;;;14.29;100.00;97826.56;6123398;23;19920;-59
2022/08/01 01:33:13;;;;;;;0.00;0.00;;;;;;;14.31;100.00;97824.63;6124345;23;20013;-61
2022/08/01 01:35:47;;;;;;;0.00;0.00;;;;;;;14.32;100.00;97827.16;6123143;23;20022;-60
2022/08/01 01:38:19;;;;;;;0.00;0.00;;;;;;;14.32;100.00;97831.63;6124083;23;20018;-60
2022/08/01 01:40:47;;;;;;;0.00;0.00;;;;;;;14.36;100.00;97833.03;6124657;23;20453;-60
2022/08/01 01:43:16;;;;;;;0.00;0.00;;;;;;;14.29;100.00;97835.31;6125066;23;20017;-60
2022/08/01 01:45:46;;;;;;;0.00;0.00;;;;;;;14.25;100.00;97830.44;6124830;23;20101;-60
2022/08/01 01:48:18;;;;;;;0.00;0.00;;;;;;;14.28;100.00;97836.31;6124834;23;20077;-60
2022/08/01 01:50:48;;;;;;;0.00;0.00;;;;;;;14.25;100.00;97831.25;6124802;23;20018;-60
2022/08/01 01:53:20;;;;;;;0.00;0.00;;;;;;;14.22;100.00;97833.31;6124642;23;20021;-61
2022/08/01 01:55:51;;;;;;;0.00;0.00;;;;;;;14.18;100.00;97840.66;6122594;23;20026;-61
2022/08/01 01:58:21;;;;;;;0.00;0.00;;;;;;;14.18;100.00;97845.94;6122932;23;20584;-60
2022/08/01 02:00:52;;;;;;;0.00;0.00;;;;;;;14.17;100.00;97836.34;6122601;23;20022;-60
2022/08/01 02:03:21;;;;;;;0.00;0.00;;;;;;;14.15;100.00;97842.72;6122776;23;20022;-61
2022/08/01 02:05:51;;;;;;;0.00;0.00;;;;;;;14.21;100.00;97835.13;6121977;23;20018;-60
2022/08/01 02:08:19;;;;;;;0.00;0.00;;;;;;;14.23;100.00;97842.94;6096650;23;20029;-60
2022/08/01 02:13:30;;;;;;;0.00;0.00;;;;;;;14.10;100.00;97832.47;6123484;23;20029;-60
2022/08/01 02:15:59;;;;;;;0.00;0.00;;;;;;;14.11;100.00;97838.63;6124791;23;20025;-60
2022/08/01 02:18:27;;;;;;;0.00;0.00;;;;;;;14.13;100.00;97834.06;6124606;23;20030;-60
2022/08/01 02:20:56;;;;;;;0.00;0.00;;;;;;;14.12;100.00;97832.38;6124482;23;20452;-60
2022/08/01 02:23:27;;;;;;;0.00;0.00;;;;;;;14.18;100.00;97832.72;6124684;23;20068;-59
2022/08/01 02:25:59;;;;;;;0.00;0.00;;;;;;;14.30;100.00;97842.31;6124617;23;20048;-60
2022/08/01 02:28:31;;;;;;;0.00;0.00;;;;;;;14.33;100.00;97834.09;6124511;23;20029;-60
2022/08/01 02:31:05;;;;;;;0.00;0.00;;;;;;;14.35;100.00;97839.28;6124897;23;20364;-60
2022/08/01 02:33:38;;;;;;;0.00;0.00;;;;;;;14.28;100.00;97833.66;6124567;23;20126;-60
2022/08/01 02:36:08;;;;;;;0.00;0.00;;;;;;;14.25;100.00;97841.03;6123914;23;20018;-60
2022/08/01 02:38:41;;;;;;;0.00;0.00;;;;;;;14.26;100.00;97838.25;6124494;23;20042;-60
2022/08/01 02:41:10;;;;;;;;;;;;;;;14.40;100.00;97834.47;6124926;23;20022;-60
2022/08/01 02:43:39;;;;;;;0.00;0.00;;;;;;;14.37;100.00;97835.56;6124393;23;19917;-60
2022/08/01 02:46:13;;;;;;;0.00;0.00;;;;;;;14.39;100.00;97833.63;6124423;23;20017;-60
2022/08/01 02:48:43;;;;;;;0.00;0.00;;;;;;;14.33;100.00;97830.63;6124483;23;20018;-60
2022/08/01 02:51:12;;;;;;;0.00;0.00;;;;;;;14.28;100.00;97825.72;6124356;23;20026;-60
2022/08/01 02:53:42;;;;;;;0.00;0.00;;;;;;;14.20;100.00;97828.16;6125620;23;20052;-60
2022/08/01 02:56:11;;;;;;;0.00;0.00;;;;;;;14.12;100.00;97835.03;6127131;23;20017;-60
2022/08/01 02:58:40;;;;;;;0.00;0.00;;;;;;;14.05;100.00;97821.44;6126238;23;20104;-60
2022/08/01 03:01:10;;;;;;;0.00;0.00;;;;;;;13.98;100.00;97825.53;6126163;23;20022;-60
2022/08/01 03:03:39;;;;;;;0.00;0.00;;;;;;;13.86;100.00;97825.69;6126112;23;20464;-60
2022/08/01 03:06:08;;;;;;;0.00;0.00;;;;;;;13.72;100.00;97826.81;6125446;23;20022;-60
2022/08/01 03:08:38;;;;;;;0.00;0.00;;;;;;;13.67;100.00;97830.78;6126217;23;20104;-60
2022/08/01 03:11:08;;;;;;;0.00;0.00;;;;;;;13.62;100.00;97833.78;6126019;23;20045;-60
2022/08/01 03:13:36;;;;;;;0.00;0.00;;;;;;;13.61;100.00;97824.19;6126109;23;20389;-60
2022/08/01 03:16:06;;;;;;;0.00;0.00;;;;;;;13.56;100.00;97831.66;6126092;23;20044;-59
2022/08/01 03:18:36;;;;;;;0.00;0.00;;;;;;;13.53;100.00;97825.75;6126124;23;20577;-60
2022/08/01 03:21:07;;;;;;;0.00;0.00;;;;;;;13.51;100.00;97822.41;6126068;23;20415;-60
2022/08/01 03:23:37;;;;;;;0.00;0.00;;;;;;;13.49;100.00;97814.59;6126015;23;20028;-60
2022/08/01 03:26:06;;;;;;;0.00;0.00;;;;;;;13.48;100.00;97826.09;6126067;23;20072;-60
2022/08/01 03:28:34;;;;;;;0.00;0.00;;;;;;;13.44;100.00;97824.66;6125951;23;20041;-60
2022/08/01 03:31:04;;;;;;;0.00;0.00;;;;;;;13.38;100.00;97825.16;6125943;23;20037;-60
2022/08/01 03:33:31;;;;;;;0.00;0.00;;;;;;;13.33;100.00;97826.50;6125998;23;20443;-60
2022/08/01 03:36:03;;;;;;;0.00;0.00;;;;;;;13.33;100.00;97832.59;6125430;23;20096;-60
2022/08/01 03:38:35;;;;;;;0.00;0.00;;;;;;;13.40;100.00;97827.69;6126874;23;20083;-60
2022/08/01 03:41:10;;;;;;;0.00;0.00;;;;;;;13.50;100.00;97834.75;6125989;23;20105;-60
2022/08/01 03:43:41;;;;;;;0.00;0.00;;;;;;;13.47;100.00;97831.50;6125755;23;20392;-60
2022/08/01 03:46:16;;;;;;;0.00;0.00;;;;;;;13.46;100.00;97828.03;6125878;23;20022;-59
2022/08/01 03:48:49;;;;;;;0.00;0.00;;;;;;;13.49;100.00;97834.88;6125882;23;20101;-60
2022/08/01 03:51:19;;;;;;;;;;;;;;;13.63;100.00;97839.91;6126328;23;20017;-60
2022/08/01 03:53:49;;;;;;;0.00;0.00;;;;;;;13.58;100.00;97831.50;6126193;23;19920;-60
2022/08/01 03:56:20;;;;;;;0.00;0.00;;;;;;;13.61;100.00;97837.41;6126030;23;20386;-59
2022/08/01 03:58:48;;;;;;;0.00;0.00;;;;;;;13.66;100.00;97843.16;6125623;23;20103;-60
2022/08/01 04:01:16;;;;;;;0.00;0.00;;;;;;;13.74;100.00;97847.84;6126482;23;20089;-60
2022/08/01 04:03:44;;;;;;;0.00;0.00;;;;;;;13.82;100.00;97851.56;6125859;23;20093;-59
2022/08/01 04:06:13;;;;;;;0.00;0.00;;;;;;;13.90;100.00;97849.13;6125082;23;20026;-60
2022/08/01 04:08:54;;;;;;;0.00;0.00;;;;;;;13.94;100.00;97850.56;6125622;23;20045;-60
2022/08/01 04:11:23;;;;;;;0.00;0.00;;;;;;;13.98;100.00;97843.22;6099740;23;20470;-60
2022/08/01 04:13:52;;;;;;;0.00;0.00;;;;;;;14.06;100.00;97848.72;6125934;23;20022;-59
2022/08/01 04:16:19;;;;;;;0.00;0.00;;;;;;;14.06;100.00;97843.44;6125958;23;20030;-60
2022/08/01 04:18:47;;;;;;;0.00;0.00;;;;;;;14.05;100.00;97845.25;6125720;23;20033;-59
2022/08/01 04:21:14;;;;;;;0.00;0.00;;;;;;;14.01;100.00;97849.13;6125584;23;20021;-60
2022/08/01 04:23:46;;;;;;;0.00;0.00;;;;;;;13.97;100.00;97847.69;6125484;23;20093;-59
2022/08/01 04:26:17;;;;;;;0.00;0.00;;;;;;;14.05;100.00;97847.91;6125437;23;20025;-60
2022/08/01 04:28:45;;;;;;;0.00;0.00;;;;;;;14.14;100.00;97846.34;6125451;23;20507;-60
2022/08/01 04:31:17;;;;;;;0.00;0.00;;;;;;;14.21;100.00;97850.19;6125291;23;20385;-59
2022/08/01 04:33:49;;;;;;;0.00;0.00;;;;;;;14.34;100.00;97856.13;6125191;23;20024;-59
2022/08/01 04:36:20;;;;;;;0.00;0.00;;;;;;;14.44;100.00;97855.25;6125331;23;20400;-59
2022/08/01 04:38:53;;;;;;;0.00;0.00;;;;;;;14.45;100.00;97850.78;6125284;23;20452;-60
2022/08/01 04:41:22;;;;;;;0.00;0.00;;;;;;;14.64;100.00;97850.94;6125038;23;20022;-60
2022/08/01 04:43:51;;;;;;;0.00;0.00;;;;;;;14.70;100.00;97846.94;6124971;23;20384;-59
2022/08/01 04:46:19;;;;;;;0.00;0.00;;;;;;;14.71;100.00;97841.53;6125066;23;20069;-60
2022/08/01 04:48:48;;;;;;;0.00;0.00;;;;;;;14.74;100.00;97853.66;6125466;23;20384;-59
2022/08/01 04:51:17;;;;;;;0.00;0.00;;;;;;;14.86;100.00;97852.66;6125112;23;20018;-60
2022/08/01 04:53:45;;;;;;;0.00;0.00;;;;;;;14.97;100.00;97848.13;6125344;23;20021;-60
2022/08/01 04:56:14;;;;;;;0.00;0.00;;;;;;;14.98;100.00;97848.97;6125144;23;20026;-60
2022/08/01 04:58:42;;;;;;;0.00;0.00;;;;;;;14.96;100.00;97842.94;6125376;23;20344;-60
2022/08/01 05:01:10;;;;;;;0.00;0.00;;;;;;;14.99;100.00;97848.84;6125081;23;20436;-59
2022/08/01 05:03:38;;;;;;;0.00;0.00;;;;;;;14.96;100.00;97841.16;6124991;23;20014;-59
2022/08/01 05:06:06;;;;;;;0.00;0.00;;;;;;;15.00;100.00;97842.56;6124307;23;20392;-60
2022/08/01 05:08:34;;;;;;;0.00;0.00;;;;;;;15.19;100.00;97848.00;6124983;23;20092;-61
2022/08/01 05:11:02;;;;;;;0.00;0.00;;;;;;;15.31;100.00;97851.41;6124938;23;20045;-59
2022/08/01 05:13:31;;;;;;;0.00;0.00;;;;;;;15.40;100.00;97840.00;6124820;23;20471;-59
2022/08/01 05:15:58;;;;;;;0.00;0.00;;;;;;;15.34;100.00;97846.69;6124613;23;20483;-60
2022/08/01 05:18:26;;;;;;;0.00;0.00;;;;;;;15.30;100.00;97842.63;6125062;23;20018;-58
2022/08/01 05:20:53;;;;;;;0.00;0.00;;;;;;;15.35;100.00;97844.88;6124853;23;20017;-60
2022/08/01 05:23:21;;;;;;;0.00;0.00;;;;;;;15.51;100.00;97838.13;6124745;23;20097;-60
2022/08/01 05:25:49;;;;;;;0.00;0.00;;;;;;;15.47;100.00;97842.00;6124961;23;20022;-59
2022/08/01 05:28:17;;;;;;;0.00;0.00;;;;;;;15.46;100.00;97842.13;6124868;23;20369;-59
2022/08/01 05:30:46;;;;;;;0.00;0.00;;;;;;;15.48;100.00;97838.38;6124840;23;20022;-59
2022/08/01 05:33:13;;;;;;;0.00;0.00;;;;;;;15.58;100.00;97841.91;6124805;23;20036;-59
2022/08/01 05:35:40;;;;;;;0.00;0.00;;;;;;;15.72;100.00;97848.66;6124271;23;20392;-59
2022/08/01 05:38:08;;;;;;;0.00;0.00;;;;;;;15.92;100.00;97834.47;6124768;23;20317;-59
2022/08/01 05:40:36;;;;;;;0.00;0.00;;;;;;;15.95;100.00;97839.50;6124694;23;20029;-59
2022/08/01 05:43:04;;;;;;;0.00;0.00;;;;;;;15.82;100.00;97838.94;6124554;23;20018;-59
2022/08/01 05:45:32;;;;;;;0.00;0.00;;;;;;;15.85;100.00;97851.91;6124766;23;20018;-60
2022/08/01 05:48:00;;;;;;;0.00;0.00;;;;;;;15.96;100.00;97841.16;6124741;23;20021;-59
2022/08/01 05:50:28;;;;;;;0.00;0.00;;;;;;;15.97;100.00;97850.84;6125361;23;20081;-59
2022/08/01 05:52:55;;;;;;;0.00;0.00;;;;;;;15.97;100.00;97859.63;6124987;23;20021;-59
2022/08/01 05:55:23;;;;;;;0.00;0.00;;;;;;;15.95;100.00;97847.47;6125087;23;20381;-59
2022/08/01 05:57:50;;;;;;;0.00;0.00;;;;;;;16.01;100.00;97855.72;6124171;23;20050;-59
2022/08/01 06:00:18;;;;;;;0.00;0.00;;;;;;;16.11;100.00;97853.97;6124830;23;20022;-59
2022/08/01 06:02:45;;;;;;;0.00;0.00;;;;;;;16.29;100.00;97851.47;6124510;23;20013;-60
2022/08/01 06:05:14;;;;;;;0.00;0.00;;;;;;;16.34;100.00;97851.91;6124577;23;20026;-59
2022/08/01 06:07:41;;;;;;;0.00;0.00;;;;;;;16.45;100.00;97859.75;6123968;23;20341;-59
2022/08/01 06:10:09;;;;;;;0.00;0.00;;;;;;;16.42;100.00;97852.06;6125043;23;20042;-59
2022/08/01 06:12:38;;;;;;;0.00;0.00;;;;;;;16.54;100.00;97856.25;6124547;23;20073;-59
2022/08/01 06:15:06;;;;;;;0.00;0.00;;;;;;;16.78;100.00;97865.47;6124866;23;20347;-59
2022/08/01 06:17:34;;;;;;;0.00;0.00;;;;;;;16.86;100.00;97864.78;6124449;23;20018;-60
2022/08/01 06:20:01;;;;;;;0.00;0.00;;;;;;;16.79;100.00;97863.66;6124560;23;20018;-59
2022/08/01 06:22:30;;;;;;;0.00;0.00;;;;;;;16.88;100.00;97863.63;6124428;23;20492;-59
2022/08/01 06:24:58;;;;;;;0.00;0.00;;;;;;;16.98;100.00;97871.63;6124611;23;20018;-60
2022/08/01 06:27:26;;;;;;;0.00;0.00;;;;;;;17.04;100.00;97863.91;6099845;23;20093;-58
2022/08/01 06:29:54;;;;;;;0.00;0.00;;;;;;;17.18;100.00;97870.63;6126294;23;20076;-60
2022/08/01 06:32:22;;;;;;;0.00;0.00;;;;;;;17.16;100.00;97868.13;6126515;23;20369;-59
2022/08/01 06:34:50;;;;;;;0.00;0.00;;;;;;;17.23;100.00;97869.22;6126422;23;20022;-59
2022/08/01 06:37:17;;;;;;;0.00;0.00;;;;;;;17.26;100.00;97865.44;6126045;23;20018;-59
2022/08/01 06:39:46;;;;;;;0.00;0.00;;;;;;;17.35;100.00;97864.56;6126698;23;20391;-59
2022/08/01 06:42:14;;;;;;;0.00;0.00;;;;;;;17.53;100.00;97866.34;6126133;23;20026;-59
2022/08/01 06:44:42;;;;;;;0.00;0.00;;;;;;;17.54;100.00;97872.47;6126273;23;20018;-59
2022/08/01 06:47:09;;;;;;;0.00;0.00;;;;;;;17.44;100.00;97867.19;6126805;23;20393;-59
2022/08/01 06:49:37;;;;;;;0.00;0.00;;;;;;;17.40;100.00;97871.13;6126799;23;20056;-59
2022/08/01 06:52:05;;;;;;;0.00;0.00;;;;;;;17.38;100.00;97872.25;6126570;23;20021;-59
2022/08/01 06:54:33;;;;;;;0.00;0.00;;;;;;;17.47;100.00;97866.06;6125859;23;20022;-60
2022/08/01 06:57:02;;;;;;;0.00;0.00;;;;;;;17.63;100.00;97871.63;6126358;23;20036;-59
2022/08/01 06:59:30;;;;;;;0.00;0.00;;;;;;;17.81;100.00;97869.03;6126572;23;20460;-59
2022/08/01 07:01:58;;;;;;;0.00;0.00;;;;;;;17.97;100.00;97870.09;6126311;23;20025;-59
2022/08/01 07:04:25;;;;;;;0.00;0.00;;;;;;;18.19;100.00;97863.50;6126169;23;20081;-59
2022/08/01 07:06:53;;;;;;;0.00;0.00;;;;;;;18.28;100.00;97862.63;6125072;23;20525;-59
2022/08/01 07:09:20;;;;;;;0.00;0.00;;;;;;;18.24;100.00;97867.41;6126249;23;20022;-59
2022/08/01 07:11:48;;;;;;;0.00;0.00;;;;;;;18.29;100.00;97859.81;6126381;23;20025;-59
2022/08/01 07:14:17;;;;;;;0.00;0.00;;;;;;;18.43;100.00;97864.59;6125327;23;20014;-59
2022/08/01 07:16:45;;;;;;;0.00;0.00;;;;;;;18.56;100.00;97867.75;6125911;23;20041;-60
2022/08/01 07:19:13;;;;;;;0.00;0.00;;;;;;;18.79;100.00;97858.31;6126131;23;20072;-60
2022/08/01 07:21:41;;;;;;;0.00;0.00;;;;;;;18.86;100.00;97864.72;6125442;23;20024;-59
2022/08/01 07:24:10;;;;;;;0.00;0.00;;;;;;;18.85;100.00;97868.38;6125985;23;20412;-59
2022/08/01 07:26:38;;;;;;;0.00;0.00;;;;;;;18.91;100.00;97865.09;6124771;23;20474;-59
2022/08/01 07:29:05;;;;;;;0.00;0.00;;;;;;;18.97;100.00;97855.63;6126065;23;20022;-59
2022/08/01 07:31:34;;;;;;;0.00;0.00;;;;;;;19.05;100.00;97859.19;6125773;23;20380;-60
2022/08/01 07:34:01;;;;;;;0.00;0.00;;;;;;;19.19;100.00;97855.97;6125274;23;20018;-59
2022/08/01 07:36:29;;;;;;;0.00;0.00;;;;;;;19.39;100.00;97861.94;6125498;23;20021;-59
2022/08/01 07:38:57;;;;;;;0.00;0.00;;;;;;;19.43;100.00;97853.50;6125650;23;20022;-60
2022/08/01 07:41:24;;;;;;;0.00;0.00;;;;;;;19.51;99.59;97847.38;6125741;23;20024;-59
2022/08/01 07:43:52;;;;;;;0.00;0.00;;;;;;;19.61;98.50;97854.28;6126051;23;20022;-59
2022/08/01 07:46:19;;;;;;;0.00;0.00;;;;;;;19.72;99.04;97850.50;6126185;23;20076;-60
2022/08/01 07:48:48;;;;;;;0.00;0.00;;;;;;;20.05;99.31;97853.13;6126336;23;20033;-59
2022/08/01 07:51:16;;;;;;;0.00;0.00;;;;;;;20.42;96.24;97845.56;6125439;23;20467;-60
2022/08/01 07:53:43;;;;;;;0.00;0.00;;;;;;;20.75;95.65;97846.47;6125850;23;20018;-59
2022/08/01 07:56:11;;;;;;;0.00;0.00;;;;;;;21.07;94.10;97848.34;6125888;23;20048;-60
2022/08/01 07:58:38;;;;;;;0.00;0.00;;;;;;;21.36;92.90;97844.13;6125582;23;20100;-59
2022/08/01 08:01:06;;;;;;;0.00;0.00;;;;;;;21.76;92.87;97843.22;6125736;23;20049;-60
2022/08/01 08:03:33;;;;;;;0.00;0.00;;;;;;;22.04;89.50;97833.72;6125474;23;20014;-60
2022/08/01 08:06:02;;;;;;;0.00;0.00;;;;;;;22.07;87.33;97830.69;6125188;23;20421;-60
2022/08/01 08:08:29;;;;;;;0.00;0.00;;;;;;;22.00;85.75;97838.59;6125585;23;20424;-60
2022/08/01 08:10:57;;;;;;;0.00;0.00;;;;;;;22.15;85.00;97831.50;6125309;23;20021;-60
2022/08/01 08:13:24;;;;;;;0.00;0.00;;;;;;;22.41;85.95;97831.19;6125494;23;20425;-60
2022/08/01 08:15:51;;;;;;;0.00;0.00;;;;;;;22.47;84.24;97831.34;6125472;23;20022;-60
2022/08/01 08:18:19;;;;;;;0.00;0.00;;;;;;;22.25;79.01;97833.94;6125375;23;20029;-61
2022/08/01 08:20:46;;;;;;;0.00;0.00;;;;;;;22.15;80.74;97834.19;6125531;23;20018;-60
2022/08/01 08:26:05;;;;;;;0.00;0.00;;;;;;;21.95;79.85;97843.63;6007710;23;20027;-59
2022/08/01 08:28:33;;;;;;;0.00;0.00;;;;;;;21.90;79.21;97831.75;6007752;23;20451;-60
2022/08/01 08:31:00;;;;;;;0.00;0.00;;;;;;;21.80;78.81;97839.19;6007722;23;20040;-59
2022/08/01 08:33:28;;;;;;;0.00;0.00;;;;;;;22.02;78.50;97838.44;6007825;23;20024;-60
2022/08/01 08:35:55;;;;;;;0.00;0.00;;;;;;;22.41;78.33;97836.56;6006456;23;20019;-60
2022/08/01 08:38:26;;;;;;;0.00;0.00;;;;;;;22.50;75.75;97833.66;6007072;23;20328;-60
2022/08/01 08:40:54;;;;;;;0.00;0.00;;;;;;;22.54;75.28;97832.28;6006405;23;20023;-60
2022/08/01 08:43:24;;;;;;;0.00;0.00;;;;;;;22.78;76.85;97844.69;6005780;23;20024;-58
2022/08/01 08:45:51;;;;;;;0.00;0.00;;;;;;;23.09;76.39;97832.06;6007013;23;20493;-58
2022/08/01 08:48:19;;;;;;;0.00;0.00;;;;;;;23.52;74.57;97837.50;6007469;23;20474;-58
2022/08/01 08:50:48;;;;;;;0.00;0.00;;;;;;;23.79;73.72;97837.91;6007844;23;20050;-59
2022/08/01 08:53:17;;;;;;;0.00;0.00;;;;;;;23.96;67.92;97842.09;6007605;23;20386;-58
2022/08/01 08:55:46;;;;;;;0.00;0.00;;;;;;;23.59;64.62;97840.28;6007297;23;20043;-58
2022/08/01 08:58:16;;;;;;;0.00;0.00;;;;;;;23.61;65.36;97841.75;6007008;23;20477;-59
2022/08/01 09:00:43;;;;;;;0.00;0.00;;;;;;;23.68;67.29;97840.03;6007627;23;20450;-59
2022/08/01 09:03:11;;;;;;;0.00;0.00;;;;;;;24.07;67.45;97850.50;6090455;23;20045;-59
2022/08/01 09:05:38;;;;;;;0.00;0.00;;;;;;;24.46;67.27;97847.47;6124628;23;20018;-59
2022/08/01 09:08:08;;;;;;;0.00;0.00;;;;;;;24.28;62.53;97858.63;6124611;23;20026;-59
2022/08/01 09:10:35;;;;;;;0.00;0.00;;;;;;;24.12;63.04;97858.00;6124975;23;20324;-58
2022/08/01 09:13:10;;;;;;;0.00;0.00;;;;;;;24.15;63.08;97849.56;6125300;23;20022;-58
2022/08/01 09:15:43;;;;;;;0.00;0.00;;;;;;;24.13;62.82;97849.75;6124832;23;20021;-59
2022/08/01 09:18:27;;;;;;;0.00;0.00;;;;;;;24.61;64.48;97854.50;6125110;23;20028;-58
2022/08/01 09:21:09;;;;;;;0.00;0.00;;;;;;;24.42;59.58;97846.19;6125144;23;20022;-58
2022/08/01 09:23:39;;;;;;;;;;;;;;;24.27;59.85;97851.59;6125631;23;20022;-59
2022/08/01 09:26:07;;;;;;;0.00;0.00;;;;;;;24.24;62.22;97857.34;6124866;23;20378;-58
2022/08/01 09:28:36;;;;;;;0.00;0.00;;;;;;;24.19;60.84;97854.41;6124926;23;20022;-59
2022/08/01 09:31:08;;;;;;;0.00;0.00;;;;;;;24.18;60.34;97852.69;6124809;23;20352;-58
2022/08/01 09:33:54;;;;;;;0.00;0.00;;;;;;;24.40;61.13;97848.25;6123954;23;20018;-59
2022/08/01 09:36:24;;;;;;;0.00;0.00;;;;;;;24.60;61.22;97841.22;6124345;23;20028;-58
2022/08/01 09:38:53;;;;;;;0.00;0.00;;;;;;;24.51;62.16;97847.75;6122463;23;20028;-59
2022/08/01 09:41:30;;;;;;;0.00;0.00;;;;;;;24.76;62.60;97846.34;6124651;23;20018;-59
2022/08/01 09:44:00;;;;;;;0.00;0.00;;;;;;;24.98;61.85;97845.38;6124586;23;20014;-58
2022/08/01 09:46:27;;;;;;;0.00;0.00;;;;;;;25.07;62.61;97850.41;6124725;23;20390;-59
2022/08/01 09:49:00;;;;;;;0.00;0.00;;;;;;;24.94;60.80;97839.53;6124627;23;20018;-59
2022/08/01 09:51:36;;;;;;;0.00;0.00;;;;;;;24.82;60.23;97843.75;6124727;23;20018;-58
2022/08/01 09:54:05;;;;;;;0.00;0.00;;;;;;;24.89;61.66;97851.88;6124675;23;20076;-59
2022/08/01 09:56:42;;;;;;;0.00;0.00;;;;;;;25.36;62.24;97836.78;6124750;23;20014;-59
2022/08/01 09:59:10;;;;;;;0.00;0.00;;;;;;;25.54;61.03;97842.53;6124605;23;20100;-58
2022/08/01 10:01:46;;;;;;;0.00;0.00;;;;;;;25.43;58.92;97851.13;6124390;23;20022;-59
2022/08/01 10:04:16;;;;;;;0.00;0.00;;;;;;;25.13;59.81;97844.28;6124816;23;20014;-58
2022/08/01 10:06:45;;;;;;;0.00;0.00;;;;;;;25.11;59.51;97845.50;6124052;23;20021;-59
2022/08/01 10:09:14;;;;;;;0.00;0.00;;;;;;;25.27;61.94;97850.59;6124912;23;20073;-58
2022/08/01 10:11:43;;;;;;;0.00;0.00;;;;;;;25.56;61.44;97856.66;6124769;23;20460;-59
2022/08/01 10:14:14;;;;;;;0.00;0.00;;;;;;;25.28;62.66;97847.72;6124831;23;20042;-59
2022/08/01 10:16:42;;;;;;;0.00;0.00;;;;;;;25.47;62.24;97846.22;6124658;23;20029;-58
2022/08/01 10:19:09;;;;;;;0.00;0.00;;;;;;;25.60;62.04;97847.16;6124397;23;20072;-58
2022/08/01 10:21:39;;;;;;;0.00;0.00;;;;;;;25.72;63.02;97840.19;6124674;23;20045;-58
2022/08/01 10:24:11;;;;;;;0.00;0.00;;;;;;;25.55;61.35;97841.50;6123714;23;20018;-58
2022/08/01 10:26:39;;;;;;;0.00;0.00;;;;;;;25.56;61.30;97840.50;6123197;23;20045;-59
2022/08/01 10:29:08;;;;;;;0.00;0.00;;;;;;;25.66;62.57;97843.66;6124563;23;20029;-58
2022/08/01 10:31:38;;;;;;;0.00;0.00;;;;;;;25.75;61.06;97834.41;6124418;23;20042;-57
2022/08/01 10:34:06;;;;;;;0.00;0.00;;;;;;;25.88;61.59;97842.53;6123858;23;20044;-58
2022/08/01 10:36:36;;;;;;;0.00;0.00;;;;;;;25.76;61.31;97836.06;6124098;23;20028;-59
2022/08/01 10:39:03;;;;;;;0.00;0.00;;;;;;;25.66;58.69;97840.16;6124494;23;20322;-59
2022/08/01 10:41:32;;;;;;;0.00;0.00;;;;;;;25.37;60.11;97835.78;6124544;23;20026;-58
2022/08/01 10:44:00;;;;;;;0.00;0.00;;;;;;;25.56;60.71;97836.97;6124394;23;20042;-59
2022/08/01 10:46:28;;;;;;;0.00;0.00;;;;;;;25.52;59.12;97831.13;6124336;23;20080;-59
2022/08/01 10:49:02;;;;;;;0.00;0.00;;;;;;;25.50;60.13;97833.16;6124606;23;20022;-58
2022/08/01 10:51:30;;;;;;;0.00;0.00;;;;;;;25.65;60.23;97833.91;6124671;23;20029;-58
2022/08/01 10:54:01;;;;;;;0.00;0.00;;;;;;;25.51;59.58;97826.75;6124400;23;20028;-58
2022/08/01 10:56:40;;;;;;;0.00;0.00;;;;;;;25.35;58.93;97836.97;6124579;23;20100;-60
2022/08/01 10:59:08;;;;;;;0.00;0.00;;;;;;;25.34;57.31;97836.16;6124519;23;20096;-58
2022/08/01 11:01:36;;;;;;;0.00;0.00;;;;;;;25.35;58.49;97839.66;6124521;23;20021;-59
2022/08/01 11:04:08;;;;;;;0.00;0.00;;;;;;;25.47;57.88;97833.56;6124446;23;20014;-59
2022/08/01 11:07:04;;;;;;;0.00;0.00;;;;;;;25.58;58.18;97833.03;6123984;23;20348;-59
2022/08/01 11:09:40;;;;;;;0.00;0.00;;;;;;;25.55;59.12;97836.13;6124748;23;20045;-58
2022/08/01 11:12:11;;;;;;;0.00;0.00;;;;;;;25.78;59.52;97831.31;6124830;23;20053;-59
2022/08/01 11:15:15;;;;;;;0.00;0.00;;;;;;;26.05;59.17;97830.41;6125803;23;20093;-59
2022/08/01 11:17:47;;;;;;;0.00;0.00;;;;;;;25.48;57.33;97834.41;6126536;23;20025;-58
2022/08/01 11:20:16;;;;;;;0.00;0.00;;;;;;;25.22;57.58;97836.88;6126038;23;20017;-59
2022/08/01 11:23:20;;;;;;;0.00;0.00;;;;;;;25.38;58.83;97837.44;6126228;23;20253;-58
2022/08/01 11:26:21;;;;;;;0.00;0.00;;;;;;;25.44;59.93;97833.13;6008600;23;20045;-59
2022/08/01 11:29:17;;;;;;;0.00;0.00;;;;;;;25.61;61.79;97838.03;6008477;23;20427;-58
2022/08/01 11:31:45;;;;;;;0.00;0.00;;;;;;;25.86;60.86;97830.31;6007822;23;20027;-59
2022/08/01 11:34:12;;;;;;;0.00;0.00;;;;;;;25.78;59.44;97833.16;6008579;23;20030;-58
2022/08/01 11:36:41;;;;;;;0.00;0.00;;;;;;;25.50;59.36;97835.84;6008285;23;20479;-59
2022/08/01 11:39:15;;;;;;;0.00;0.00;;;;;;;25.41;59.47;97833.50;6008369;23;20431;-59
2022/08/01 11:41:44;;;;;;;0.00;0.00;;;;;;;25.39;59.40;97836.41;6008452;23;20521;-59
2022/08/01 11:44:14;;;;;;;0.00;0.00;;;;;;;25.36;59.69;97826.00;6008224;23;20023;-58
2022/08/01 11:47:00;;;;;;;0.00;0.00;;;;;;;25.69;61.49;97828.97;6008462;23;20023;-58
2022/08/01 11:49:32;;;;;;;0.00;0.00;;;;;;;25.69;58.90;97827.09;6008404;23;20047;-58